sensor_id;sensor_type;location;lat;lon;timestamp;temperature;humidity
8420;DHT22;4247;48.550;8.822;2024-02-15T00:01:48;9.40;99.90
8420;DHT22;4247;48.550;8.822;2024-02-15T00:04:16;9.40;99.90
8420;DHT22;4247;48.550;8.822;2024-02-15T00:06:44;9.40;99.90
8420;DHT22;4247;48.550;8.822;2024-02-15T00:09:11;9.30;99.90
8420;DHT22;4247;48.550;8.822;2024-02-15T00:11:37;9.30;99.90
8420;DHT22;4247;48.550;8.822;2024-02-15T00:14:04;9.30;99.90
8420;DHT22;4247;48.550;8.822;2024-02-15T00:16:33;9.30;99.90
8420;DHT22;4247;48.550;8.822;2024-02-15T00:19:00;9.20;99.90
8420;DHT22;4247;48.550;8.822;2024-02-15T00:21:28;9.20;99.90
8420;DHT22;4247;48.550;8.822;2024-02-15T00:23:55;9.20;99.90
8420;DHT22;4247;48.550;8.822;2024-02-15T00:26:25;9.20;99.90
8420;DHT22;4247;48.550;8.822;2024-02-15T00:28:51;9.20;99.90
8420;DHT22;4247;48.550;8.822;2024-02-15T00:31:18;9.20;99.90
8420;DHT22;4247;48.550;8.822;2024-02-15T00:33:45;9.10;99.90
8420;DHT22;4247;48.550;8.822;2024-02-15T00:36:11;9.00;99.90
8420;DHT22;4247;48.550;8.822;2024-02-15T00:38:40;9.00;99.90
8420;DHT22;4247;48.550;8.822;2024-02-15T00:41:08;8.90;99.90
8420;DHT22;4247;48.550;8.822;2024-02-15T00:43:36;8.90;99.90
8420;DHT22;4247;48.550;8.822;2024-02-15T00:46:03;8.90;99.90
8420;DHT22;4247;48.550;8.822;2024-02-15T00:48:29;8.80;99.90
8420;DHT22;4247;48.550;8.822;2024-02-15T00:50:56;8.80;99.90
8420;DHT22;4247;48.550;8.822;2024-02-15T00:53:23;8.80;99.90
8420;DHT22;4247;48.550;8.822;2024-02-15T00:55:51;8.70;99.90
8420;DHT22;4247;48.550;8.822;2024-02-15T00:58:18;8.70;99.90
8420;DHT22;4247;48.550;8.822;2024-02-15T01:00:44;8.60;99.90
8420;DHT22;4247;48.550;8.822;2024-02-15T01:03:11;8.50;99.90
8420;DHT22;4247;48.550;8.822;2024-02-15T01:05:38;8.50;99.90
8420;DHT22;4247;48.550;8.822;2024-02-15T01:08:05;8.40;99.90
8420;DHT22;4247;48.550;8.822;2024-02-15T01:10:31;8.30;99.90
8420;DHT22;4247;48.550;8.822;2024-02-15T01:13:00;8.30;99.90
8420;DHT22;4247;48.550;8.822;2024-02-15T01:15:27;8.20;99.90
8420;DHT22;4247;48.550;8.822;2024-02-15T01:17:54;8.20;99.90
8420;DHT22;4247;48.550;8.822;2024-02-15T01:20:21;8.20;99.90
8420;DHT22;4247;48.550;8.822;2024-02-15T01:22:47;8.20;99.90
8420;DHT22;4247;48.550;8.822;2024-02-15T01:25:15;8.20;99.90
8420;DHT22;4247;48.550;8.822;2024-02-15T01:27:43;8.10;99.90
8420;DHT22;4247;48.550;8.822;2024-02-15T01:30:11;8.10;99.90
8420;DHT22;4247;48.550;8.822;2024-02-15T01:32:38;8.10;99.90
8420;DHT22;4247;48.550;8.822;2024-02-15T01:35:07;8.10;99.90
8420;DHT22;4247;48.550;8.822;2024-02-15T01:37:35;8.10;99.90
8420;DHT22;4247;48.550;8.822;2024-02-15T01:40:02;8.00;99.90
8420;DHT22;4247;48.550;8.822;2024-02-15T01:42:32;8.00;99.90
8420;DHT22;4247;48.550;8.822;2024-02-15T01:44:58;8.00;99.90
8420;DHT22;4247;48.550;8.822;2024-02-15T01:47:27;8.00;99.90
8420;DHT22;4247;48.550;8.822;2024-02-15T01:49:54;8.00;99.90
8420;DHT22;4247;48.550;8.822;2024-02-15T01:52:22;7.90;99.90
8420;DHT22;4247;48.550;8.822;2024-02-15T01:54:51;7.90;99.90
8420;DHT22;4247;48.550;8.822;2024-02-15T01:57:19;7.80;99.90
8420;DHT22;4247;48.550;8.822;2024-02-15T01:59:47;7.80;99.90
8420;DHT22;4247;48.550;8.822;2024-02-15T02:02:14;7.70;99.90
8420;DHT22;4247;48.550;8.822;2024-02-15T02:04:45;7.70;99.90
8420;DHT22;4247;48.550;8.822;2024-02-15T02:07:12;7.70;99.90
8420;DHT22;4247;48.550;8.822;2024-02-15T02:09:40;7.60;99.90
8420;DHT22;4247;48.550;8.822;2024-02-15T02:12:07;7.60;99.90
8420;DHT22;4247;48.550;8.822;2024-02-15T02:14:33;7.60;99.90
8420;DHT22;4247;48.550;8.822;2024-02-15T02:17:11;7.50;99.90
8420;DHT22;4247;48.550;8.822;2024-02-15T02:19:38;7.50;99.90
8420;DHT22;4247;48.550;8.822;2024-02-15T02:22:07;7.50;99.90
8420;DHT22;4247;48.550;8.822;2024-02-15T02:24:40;7.40;99.90
8420;DHT22;4247;48.550;8.822;2024-02-15T02:27:13;7.40;99.90
8420;DHT22;4247;48.550;8.822;2024-02-15T02:29:42;7.40;99.90
8420;DHT22;4247;48.550;8.822;2024-02-15T02:32:11;7.40;99.90
8420;DHT22;4247;48.550;8.822;2024-02-15T02:34:37;7.40;99.90
8420;DHT22;4247;48.550;8.822;2024-02-15T02:37:04;7.40;99.90
8420;DHT22;4247;48.550;8.822;2024-02-15T02:39:33;7.40;99.90
8420;DHT22;4247;48.550;8.822;2024-02-15T02:42:00;7.40;99.90
8420;DHT22;4247;48.550;8.822;2024-02-15T02:44:28;7.40;99.90
8420;DHT22;4247;48.550;8.822;2024-02-15T02:46:54;7.40;99.90
8420;DHT22;4247;48.550;8.822;2024-02-15T02:49:21;7.40;99.90
8420;DHT22;4247;48.550;8.822;2024-02-15T02:51:48;7.40;99.90
8420;DHT22;4247;48.550;8.822;2024-02-15T02:54:15;7.30;99.90
8420;DHT22;4247;48.550;8.822;2024-02-15T02:56:41;7.30;99.90
8420;DHT22;4247;48.550;8.822;2024-02-15T02:59:09;7.30;99.90
8420;DHT22;4247;48.550;8.822;2024-02-15T03:01:37;7.30;99.90
8420;DHT22;4247;48.550;8.822;2024-02-15T03:04:05;7.30;99.90
8420;DHT22;4247;48.550;8.822;2024-02-15T03:06:32;7.30;99.90
8420;DHT22;4247;48.550;8.822;2024-02-15T03:08:58;7.20;99.90
8420;DHT22;4247;48.550;8.822;2024-02-15T03:11:25;7.20;99.90
8420;DHT22;4247;48.550;8.822;2024-02-15T03:13:52;7.20;99.90
8420;DHT22;4247;48.550;8.822;2024-02-15T03:16:22;7.20;99.90
8420;DHT22;4247;48.550;8.822;2024-02-15T03:18:51;7.20;99.90
8420;DHT22;4247;48.550;8.822;2024-02-15T03:21:18;7.20;99.90
8420;DHT22;4247;48.550;8.822;2024-02-15T03:23:46;7.10;99.90
8420;DHT22;4247;48.550;8.822;2024-02-15T03:26:12;7.10;99.90
8420;DHT22;4247;48.550;8.822;2024-02-15T03:28:39;7.10;99.90
8420;DHT22;4247;48.550;8.822;2024-02-15T03:31:07;7.10;99.90
8420;DHT22;4247;48.550;8.822;2024-02-15T03:33:33;7.20;99.90
8420;DHT22;4247;48.550;8.822;2024-02-15T03:36:02;7.20;99.90
8420;DHT22;4247;48.550;8.822;2024-02-15T03:38:29;7.20;99.90
8420;DHT22;4247;48.550;8.822;2024-02-15T03:40:56;7.20;99.90
8420;DHT22;4247;48.550;8.822;2024-02-15T03:43:23;7.20;99.90
8420;DHT22;4247;48.550;8.822;2024-02-15T03:45:50;7.30;99.90
8420;DHT22;4247;48.550;8.822;2024-02-15T03:48:17;7.30;99.90
8420;DHT22;4247;48.550;8.822;2024-02-15T03:50:44;7.30;99.90
8420;DHT22;4247;48.550;8.822;2024-02-15T03:53:12;7.30;99.90
8420;DHT22;4247;48.550;8.822;2024-02-15T03:55:39;7.30;99.90
8420;DHT22;4247;48.550;8.822;2024-02-15T03:58:06;7.40;99.90
8420;DHT22;4247;48.550;8.822;2024-02-15T04:00:34;7.40;99.90
8420;DHT22;4247;48.550;8.822;2024-02-15T04:03:01;7.50;99.90
8420;DHT22;4247;48.550;8.822;2024-02-15T04:05:27;7.50;99.90
8420;DHT22;4247;48.550;8.822;2024-02-15T04:07:54;7.50;99.90
8420;DHT22;4247;48.550;8.822;2024-02-15T04:10:22;7.60;99.90
8420;DHT22;4247;48.550;8.822;2024-02-15T04:12:49;7.60;99.90
8420;DHT22;4247;48.550;8.822;2024-02-15T04:15:16;7.60;99.90
8420;DHT22;4247;48.550;8.822;2024-02-15T04:17:44;7.60;99.90
8420;DHT22;4247;48.550;8.822;2024-02-15T04:20:11;7.60;99.90
8420;DHT22;4247;48.550;8.822;2024-02-15T04:22:40;7.60;99.90
8420;DHT22;4247;48.550;8.822;2024-02-15T04:25:09;7.50;99.90
8420;DHT22;4247;48.550;8.822;2024-02-15T04:27:37;7.50;99.90
8420;DHT22;4247;48.550;8.822;2024-02-15T04:30:04;7.50;99.90
8420;DHT22;4247;48.550;8.822;2024-02-15T04:32:35;7.50;99.90
8420;DHT22;4247;48.550;8.822;2024-02-15T04:35:02;7.50;99.90
8420;DHT22;4247;48.550;8.822;2024-02-15T04:37:30;7.50;99.90
8420;DHT22;4247;48.550;8.822;2024-02-15T04:39:57;7.50;99.90
8420;DHT22;4247;48.550;8.822;2024-02-15T04:42:24;7.50;99.90
8420;DHT22;4247;48.550;8.822;2024-02-15T04:44:54;7.50;99.90
8420;DHT22;4247;48.550;8.822;2024-02-15T04:47:21;7.50;99.90
8420;DHT22;4247;48.550;8.822;2024-02-15T04:49:48;7.50;99.90
8420;DHT22;4247;48.550;8.822;2024-02-15T04:52:15;7.40;99.90
8420;DHT22;4247;48.550;8.822;2024-02-15T04:54:43;7.50;99.90
8420;DHT22;4247;48.550;8.822;2024-02-15T04:57:09;7.40;99.90
8420;DHT22;4247;48.550;8.822;2024-02-15T04:59:37;7.30;99.90
8420;DHT22;4247;48.550;8.822;2024-02-15T05:02:05;7.30;99.90
8420;DHT22;4247;48.550;8.822;2024-02-15T05:04:33;7.30;99.90
8420;DHT22;4247;48.550;8.822;2024-02-15T05:07:01;7.20;99.90
8420;DHT22;4247;48.550;8.822;2024-02-15T05:09:29;7.20;99.90
8420;DHT22;4247;48.550;8.822;2024-02-15T05:11:56;7.10;99.90
8420;DHT22;4247;48.550;8.822;2024-02-15T05:14:23;7.10;99.90
8420;DHT22;4247;48.550;8.822;2024-02-15T05:16:50;7.00;99.90
8420;DHT22;4247;48.550;8.822;2024-02-15T05:19:18;7.00;99.90
8420;DHT22;4247;48.550;8.822;2024-02-15T05:21:45;6.90;99.90
8420;DHT22;4247;48.550;8.822;2024-02-15T05:24:12;6.80;99.90
8420;DHT22;4247;48.550;8.822;2024-02-15T05:26:40;6.80;99.90
8420;DHT22;4247;48.550;8.822;2024-02-15T05:29:08;6.70;99.90
8420;DHT22;4247;48.550;8.822;2024-02-15T05:31:35;6.70;99.90
8420;DHT22;4247;48.550;8.822;2024-02-15T05:34:04;6.70;99.90
8420;DHT22;4247;48.550;8.822;2024-02-15T05:36:34;6.70;99.90
8420;DHT22;4247;48.550;8.822;2024-02-15T05:39:01;6.60;99.90
8420;DHT22;4247;48.550;8.822;2024-02-15T05:41:28;6.60;99.90
8420;DHT22;4247;48.550;8.822;2024-02-15T05:43:55;6.60;99.90
8420;DHT22;4247;48.550;8.822;2024-02-15T05:46:23;6.50;99.90
8420;DHT22;4247;48.550;8.822;2024-02-15T05:48:50;6.50;99.90
8420;DHT22;4247;48.550;8.822;2024-02-15T05:51:18;6.50;99.90
8420;DHT22;4247;48.550;8.822;2024-02-15T05:53:46;6.40;99.90
8420;DHT22;4247;48.550;8.822;2024-02-15T05:56:12;6.40;99.90
8420;DHT22;4247;48.550;8.822;2024-02-15T05:58:39;6.40;99.90
8420;DHT22;4247;48.550;8.822;2024-02-15T06:01:06;6.30;99.90
8420;DHT22;4247;48.550;8.822;2024-02-15T06:03:37;6.30;99.90
8420;DHT22;4247;48.550;8.822;2024-02-15T06:06:06;6.30;99.90
8420;DHT22;4247;48.550;8.822;2024-02-15T06:08:33;6.30;99.90
8420;DHT22;4247;48.550;8.822;2024-02-15T06:11:01;6.30;99.90
8420;DHT22;4247;48.550;8.822;2024-02-15T06:13:29;6.20;99.90
8420;DHT22;4247;48.550;8.822;2024-02-15T06:15:56;6.20;99.90
8420;DHT22;4247;48.550;8.822;2024-02-15T06:18:24;6.20;99.90
8420;DHT22;4247;48.550;8.822;2024-02-15T06:20:53;6.10;99.90
8420;DHT22;4247;48.550;8.822;2024-02-15T06:23:22;6.10;99.90
8420;DHT22;4247;48.550;8.822;2024-02-15T06:25:52;6.10;99.90
8420;DHT22;4247;48.550;8.822;2024-02-15T06:28:20;6.00;99.90
8420;DHT22;4247;48.550;8.822;2024-02-15T06:31:01;6.00;99.90
8420;DHT22;4247;48.550;8.822;2024-02-15T06:33:57;6.10;99.90
8420;DHT22;4247;48.550;8.822;2024-02-15T06:36:49;6.00;99.90
8420;DHT22;4247;48.550;8.822;2024-02-15T06:39:34;6.00;99.90
8420;DHT22;4247;48.550;8.822;2024-02-15T06:42:12;6.00;99.90
8420;DHT22;4247;48.550;8.822;2024-02-15T06:44:42;6.00;99.90
8420;DHT22;4247;48.550;8.822;2024-02-15T06:47:09;6.00;99.90
8420;DHT22;4247;48.550;8.822;2024-02-15T06:49:36;6.00;99.90
8420;DHT22;4247;48.550;8.822;2024-02-15T06:52:05;6.00;99.90
8420;DHT22;4247;48.550;8.822;2024-02-15T06:54:32;6.00;99.90
8420;DHT22;4247;48.550;8.822;2024-02-15T06:56:59;6.00;99.90
8420;DHT22;4247;48.550;8.822;2024-02-15T06:59:27;6.00;99.90
8420;DHT22;4247;48.550;8.822;2024-02-15T07:01:55;6.00;99.90
8420;DHT22;4247;48.550;8.822;2024-02-15T07:04:22;6.00;99.90
8420;DHT22;4247;48.550;8.822;2024-02-15T07:06:51;6.00;99.90
8420;DHT22;4247;48.550;8.822;2024-02-15T07:09:19;6.10;99.90
8420;DHT22;4247;48.550;8.822;2024-02-15T07:11:48;6.20;99.90
8420;DHT22;4247;48.550;8.822;2024-02-15T07:14:15;6.30;99.90
8420;DHT22;4247;48.550;8.822;2024-02-15T07:16:44;6.30;99.90
8420;DHT22;4247;48.550;8.822;2024-02-15T07:19:12;6.40;99.90
8420;DHT22;4247;48.550;8.822;2024-02-15T07:21:39;6.50;99.90
8420;DHT22;4247;48.550;8.822;2024-02-15T07:24:06;6.60;99.90
8420;DHT22;4247;48.550;8.822;2024-02-15T07:26:33;6.70;99.90
8420;DHT22;4247;48.550;8.822;2024-02-15T07:29:02;6.80;99.90
8420;DHT22;4247;48.550;8.822;2024-02-15T07:31:31;6.80;99.90
8420;DHT22;4247;48.550;8.822;2024-02-15T07:33:58;6.90;99.90
8420;DHT22;4247;48.550;8.822;2024-02-15T07:36:26;6.90;99.90
8420;DHT22;4247;48.550;8.822;2024-02-15T07:38:54;6.90;99.90
8420;DHT22;4247;48.550;8.822;2024-02-15T07:41:23;7.00;99.90
8420;DHT22;4247;48.550;8.822;2024-02-15T07:43:50;7.10;99.90
8420;DHT22;4247;48.550;8.822;2024-02-15T07:46:19;7.20;99.90
8420;DHT22;4247;48.550;8.822;2024-02-15T07:48:47;7.30;99.90
8420;DHT22;4247;48.550;8.822;2024-02-15T07:51:15;7.40;99.90
8420;DHT22;4247;48.550;8.822;2024-02-15T07:53:45;7.40;99.90
8420;DHT22;4247;48.550;8.822;2024-02-15T07:56:12;7.40;99.90
8420;DHT22;4247;48.550;8.822;2024-02-15T07:58:39;7.40;99.90
8420;DHT22;4247;48.550;8.822;2024-02-15T08:01:08;7.50;99.90
8420;DHT22;4247;48.550;8.822;2024-02-15T08:03:34;7.50;99.90
8420;DHT22;4247;48.550;8.822;2024-02-15T08:06:01;7.50;99.90
8420;DHT22;4247;48.550;8.822;2024-02-15T08:08:32;7.60;99.90
8420;DHT22;4247;48.550;8.822;2024-02-15T08:11:01;7.70;99.90
8420;DHT22;4247;48.550;8.822;2024-02-15T08:13:28;7.70;99.90
8420;DHT22;4247;48.550;8.822;2024-02-15T08:15:55;7.80;99.90
8420;DHT22;4247;48.550;8.822;2024-02-15T08:18:22;7.80;99.90
8420;DHT22;4247;48.550;8.822;2024-02-15T08:20:50;7.80;99.90
8420;DHT22;4247;48.550;8.822;2024-02-15T08:23:16;7.80;99.90
8420;DHT22;4247;48.550;8.822;2024-02-15T08:25:43;7.90;99.90
8420;DHT22;4247;48.550;8.822;2024-02-15T08:28:11;8.00;99.90
8420;DHT22;4247;48.550;8.822;2024-02-15T08:30:38;8.00;99.90
8420;DHT22;4247;48.550;8.822;2024-02-15T08:33:05;8.10;99.90
8420;DHT22;4247;48.550;8.822;2024-02-15T08:35:32;8.10;99.90
8420;DHT22;4247;48.550;8.822;2024-02-15T08:37:58;8.20;99.90
8420;DHT22;4247;48.550;8.822;2024-02-15T08:40:25;8.20;99.90
8420;DHT22;4247;48.550;8.822;2024-02-15T08:42:53;8.20;99.90
8420;DHT22;4247;48.550;8.822;2024-02-15T08:45:22;8.30;99.90
8420;DHT22;4247;48.550;8.822;2024-02-15T08:47:49;8.30;99.90
8420;DHT22;4247;48.550;8.822;2024-02-15T08:50:18;8.30;99.90
8420;DHT22;4247;48.550;8.822;2024-02-15T08:52:48;8.40;99.90
8420;DHT22;4247;48.550;8.822;2024-02-15T08:55:14;8.40;99.90
8420;DHT22;4247;48.550;8.822;2024-02-15T08:57:43;8.40;99.90
8420;DHT22;4247;48.550;8.822;2024-02-15T09:00:11;8.40;99.90
8420;DHT22;4247;48.550;8.822;2024-02-15T09:02:42;8.50;99.90
8420;DHT22;4247;48.550;8.822;2024-02-15T09:05:09;8.50;99.90
8420;DHT22;4247;48.550;8.822;2024-02-15T09:07:39;8.60;99.90
8420;DHT22;4247;48.550;8.822;2024-02-15T09:10:07;8.60;99.90
8420;DHT22;4247;48.550;8.822;2024-02-15T09:12:35;8.70;99.90
8420;DHT22;4247;48.550;8.822;2024-02-15T09:15:05;8.80;99.90
8420;DHT22;4247;48.550;8.822;2024-02-15T09:17:33;8.80;99.90
8420;DHT22;4247;48.550;8.822;2024-02-15T09:20:06;8.90;99.90
8420;DHT22;4247;48.550;8.822;2024-02-15T09:22:34;9.00;99.90
8420;DHT22;4247;48.550;8.822;2024-02-15T09:25:01;9.00;99.90
8420;DHT22;4247;48.550;8.822;2024-02-15T09:27:28;9.10;99.90
8420;DHT22;4247;48.550;8.822;2024-02-15T09:29:55;9.10;99.90
8420;DHT22;4247;48.550;8.822;2024-02-15T09:32:22;9.10;99.90
8420;DHT22;4247;48.550;8.822;2024-02-15T09:34:48;9.20;99.90
8420;DHT22;4247;48.550;8.822;2024-02-15T09:37:17;9.20;99.90
8420;DHT22;4247;48.550;8.822;2024-02-15T09:39:43;9.20;99.90
8420;DHT22;4247;48.550;8.822;2024-02-15T09:42:11;9.30;99.90
8420;DHT22;4247;48.550;8.822;2024-02-15T09:44:38;9.30;99.90
8420;DHT22;4247;48.550;8.822;2024-02-15T09:47:06;9.30;99.90
8420;DHT22;4247;48.550;8.822;2024-02-15T09:49:35;9.40;99.90
8420;DHT22;4247;48.550;8.822;2024-02-15T09:52:06;9.40;99.90
8420;DHT22;4247;48.550;8.822;2024-02-15T09:54:39;9.50;99.90
8420;DHT22;4247;48.550;8.822;2024-02-15T09:57:06;9.50;99.90
8420;DHT22;4247;48.550;8.822;2024-02-15T09:59:33;9.60;99.90
8420;DHT22;4247;48.550;8.822;2024-02-15T10:02:02;9.60;99.90
8420;DHT22;4247;48.550;8.822;2024-02-15T10:04:28;9.60;99.90
8420;DHT22;4247;48.550;8.822;2024-02-15T10:06:55;9.70;99.90
8420;DHT22;4247;48.550;8.822;2024-02-15T10:09:26;9.70;99.90
8420;DHT22;4247;48.550;8.822;2024-02-15T10:11:57;9.80;99.90
8420;DHT22;4247;48.550;8.822;2024-02-15T10:14:24;9.80;99.90
8420;DHT22;4247;48.550;8.822;2024-02-15T10:16:52;9.90;99.90
8420;DHT22;4247;48.550;8.822;2024-02-15T10:19:19;9.90;99.90
8420;DHT22;4247;48.550;8.822;2024-02-15T10:21:51;9.90;99.90
8420;DHT22;4247;48.550;8.822;2024-02-15T10:24:20;10.00;99.90
8420;DHT22;4247;48.550;8.822;2024-02-15T10:26:48;10.00;99.90
8420;DHT22;4247;48.550;8.822;2024-02-15T10:29:17;10.00;99.90
8420;DHT22;4247;48.550;8.822;2024-02-15T10:31:52;10.10;99.90
8420;DHT22;4247;48.550;8.822;2024-02-15T10:34:20;10.10;99.90
8420;DHT22;4247;48.550;8.822;2024-02-15T10:36:47;10.20;99.90
8420;DHT22;4247;48.550;8.822;2024-02-15T10:39:15;10.30;99.90
8420;DHT22;4247;48.550;8.822;2024-02-15T10:41:45;10.30;99.90
8420;DHT22;4247;48.550;8.822;2024-02-15T10:44:18;10.40;99.90
8420;DHT22;4247;48.550;8.822;2024-02-15T10:46:46;10.40;99.90
8420;DHT22;4247;48.550;8.822;2024-02-15T10:49:17;10.40;99.90
8420;DHT22;4247;48.550;8.822;2024-02-15T10:51:44;10.40;99.90
8420;DHT22;4247;48.550;8.822;2024-02-15T10:54:12;10.50;99.90
8420;DHT22;4247;48.550;8.822;2024-02-15T10:56:43;10.60;99.90
8420;DHT22;4247;48.550;8.822;2024-02-15T10:59:18;10.60;99.90
8420;DHT22;4247;48.550;8.822;2024-02-15T11:01:46;10.70;99.90
8420;DHT22;4247;48.550;8.822;2024-02-15T11:04:18;10.70;99.90
8420;DHT22;4247;48.550;8.822;2024-02-15T11:06:48;10.80;99.90
8420;DHT22;4247;48.550;8.822;2024-02-15T11:09:16;10.80;99.90
8420;DHT22;4247;48.550;8.822;2024-02-15T11:11:45;10.90;99.90
8420;DHT22;4247;48.550;8.822;2024-02-15T11:14:25;10.90;99.90
8420;DHT22;4247;48.550;8.822;2024-02-15T11:16:52;11.00;99.90
8420;DHT22;4247;48.550;8.822;2024-02-15T11:19:49;11.10;99.90
8420;DHT22;4247;48.550;8.822;2024-02-15T11:22:16;11.10;99.90
8420;DHT22;4247;48.550;8.822;2024-02-15T11:24:47;11.20;99.90
8420;DHT22;4247;48.550;8.822;2024-02-15T11:27:24;11.30;99.90
8420;DHT22;4247;48.550;8.822;2024-02-15T11:29:54;11.30;99.90
8420;DHT22;4247;48.550;8.822;2024-02-15T11:32:38;11.40;99.90
8420;DHT22;4247;48.550;8.822;2024-02-15T11:35:06;11.50;99.90
8420;DHT22;4247;48.550;8.822;2024-02-15T11:37:56;11.50;99.90
8420;DHT22;4247;48.550;8.822;2024-02-15T11:41:02;11.60;99.90
8420;DHT22;4247;48.550;8.822;2024-02-15T11:43:49;11.70;99.90
8420;DHT22;4247;48.550;8.822;2024-02-15T11:46:22;11.80;99.90
8420;DHT22;4247;48.550;8.822;2024-02-15T11:48:52;11.90;99.90
8420;DHT22;4247;48.550;8.822;2024-02-15T11:51:32;12.00;99.90
8420;DHT22;4247;48.550;8.822;2024-02-15T11:54:06;12.00;99.90
8420;DHT22;4247;48.550;8.822;2024-02-15T11:56:50;12.10;99.90
8420;DHT22;4247;48.550;8.822;2024-02-15T11:59:19;12.20;99.90
8420;DHT22;4247;48.550;8.822;2024-02-15T12:01:58;12.20;99.90
8420;DHT22;4247;48.550;8.822;2024-02-15T12:04:43;12.30;99.90
8420;DHT22;4247;48.550;8.822;2024-02-15T12:07:28;12.30;99.90
8420;DHT22;4247;48.550;8.822;2024-02-15T12:10:16;12.40;99.90
8420;DHT22;4247;48.550;8.822;2024-02-15T12:13:00;12.50;99.90
8420;DHT22;4247;48.550;8.822;2024-02-15T12:15:56;12.50;99.90
8420;DHT22;4247;48.550;8.822;2024-02-15T12:18:42;12.50;99.90
8420;DHT22;4247;48.550;8.822;2024-02-15T12:21:14;12.60;99.90
8420;DHT22;4247;48.550;8.822;2024-02-15T12:23:42;12.60;99.90
8420;DHT22;4247;48.550;8.822;2024-02-15T12:26:08;12.60;99.90
8420;DHT22;4247;48.550;8.822;2024-02-15T12:28:35;12.70;99.90
8420;DHT22;4247;48.550;8.822;2024-02-15T12:31:02;12.70;99.90
8420;DHT22;4247;48.550;8.822;2024-02-15T12:33:32;12.80;99.90
8420;DHT22;4247;48.550;8.822;2024-02-15T12:36:09;12.80;99.90
8420;DHT22;4247;48.550;8.822;2024-02-15T12:38:36;12.90;99.90
8420;DHT22;4247;48.550;8.822;2024-02-15T12:41:04;12.90;99.90
8420;DHT22;4247;48.550;8.822;2024-02-15T12:43:43;13.00;99.90
8420;DHT22;4247;48.550;8.822;2024-02-15T12:46:10;13.00;99.90
8420;DHT22;4247;48.550;8.822;2024-02-15T12:48:38;13.10;99.90
8420;DHT22;4247;48.550;8.822;2024-02-15T12:51:14;13.10;99.90
8420;DHT22;4247;48.550;8.822;2024-02-15T12:53:41;13.20;99.90
8420;DHT22;4247;48.550;8.822;2024-02-15T12:56:08;13.20;99.90
8420;DHT22;4247;48.550;8.822;2024-02-15T12:58:35;13.30;99.90
8420;DHT22;4247;48.550;8.822;2024-02-15T13:01:04;13.30;99.90
8420;DHT22;4247;48.550;8.822;2024-02-15T13:03:31;13.30;99.90
8420;DHT22;4247;48.550;8.822;2024-02-15T13:05:57;13.30;99.90
8420;DHT22;4247;48.550;8.822;2024-02-15T13:08:25;13.40;99.90
8420;DHT22;4247;48.550;8.822;2024-02-15T13:10:52;13.40;99.90
8420;DHT22;4247;48.550;8.822;2024-02-15T13:13:19;13.40;99.90
8420;DHT22;4247;48.550;8.822;2024-02-15T13:15:46;13.40;99.90
8420;DHT22;4247;48.550;8.822;2024-02-15T13:18:13;13.40;99.90
8420;DHT22;4247;48.550;8.822;2024-02-15T13:20:40;13.40;99.90
8420;DHT22;4247;48.550;8.822;2024-02-15T13:23:08;13.40;99.90
8420;DHT22;4247;48.550;8.822;2024-02-15T13:25:36;13.50;99.90
8420;DHT22;4247;48.550;8.822;2024-02-15T13:28:05;13.50;99.90
8420;DHT22;4247;48.550;8.822;2024-02-15T13:30:34;13.50;99.90
8420;DHT22;4247;48.550;8.822;2024-02-15T13:33:01;13.50;99.90
8420;DHT22;4247;48.550;8.822;2024-02-15T13:35:28;13.50;99.90
8420;DHT22;4247;48.550;8.822;2024-02-15T13:37:55;13.50;99.90
8420;DHT22;4247;48.550;8.822;2024-02-15T13:40:24;13.50;99.90
8420;DHT22;4247;48.550;8.822;2024-02-15T13:42:55;13.50;99.90
8420;DHT22;4247;48.550;8.822;2024-02-15T13:45:30;13.50;99.90
8420;DHT22;4247;48.550;8.822;2024-02-15T13:47:59;13.50;99.90
8420;DHT22;4247;48.550;8.822;2024-02-15T13:50:29;13.50;99.90
8420;DHT22;4247;48.550;8.822;2024-02-15T13:52:56;13.50;99.90
8420;DHT22;4247;48.550;8.822;2024-02-15T13:55:23;13.60;99.90
8420;DHT22;4247;48.550;8.822;2024-02-15T13:57:52;13.60;99.90
8420;DHT22;4247;48.550;8.822;2024-02-15T14:00:21;13.60;99.90
8420;DHT22;4247;48.550;8.822;2024-02-15T14:02:48;13.70;99.90
8420;DHT22;4247;48.550;8.822;2024-02-15T14:05:15;13.70;99.90
8420;DHT22;4247;48.550;8.822;2024-02-15T14:07:46;13.70;99.90
8420;DHT22;4247;48.550;8.822;2024-02-15T14:10:13;13.70;99.90
8420;DHT22;4247;48.550;8.822;2024-02-15T14:12:40;13.80;99.90
8420;DHT22;4247;48.550;8.822;2024-02-15T14:15:08;13.70;99.90
8420;DHT22;4247;48.550;8.822;2024-02-15T14:17:35;13.70;99.90
8420;DHT22;4247;48.550;8.822;2024-02-15T14:20:02;13.80;99.90
8420;DHT22;4247;48.550;8.822;2024-02-15T14:22:34;13.80;99.90
8420;DHT22;4247;48.550;8.822;2024-02-15T14:25:00;13.80;99.90
8420;DHT22;4247;48.550;8.822;2024-02-15T14:27:29;13.80;99.90
8420;DHT22;4247;48.550;8.822;2024-02-15T14:29:56;13.80;99.90
8420;DHT22;4247;48.550;8.822;2024-02-15T14:32:41;13.80;99.90
8420;DHT22;4247;48.550;8.822;2024-02-15T14:35:26;13.80;99.90
8420;DHT22;4247;48.550;8.822;2024-02-15T14:37:54;13.80;99.90
8420;DHT22;4247;48.550;8.822;2024-02-15T14:40:23;13.80;99.90
8420;DHT22;4247;48.550;8.822;2024-02-15T14:42:50;13.80;99.90
8420;DHT22;4247;48.550;8.822;2024-02-15T14:45:17;13.80;99.90
8420;DHT22;4247;48.550;8.822;2024-02-15T14:47:46;13.80;99.90
8420;DHT22;4247;48.550;8.822;2024-02-15T14:50:13;13.70;99.90
8420;DHT22;4247;48.550;8.822;2024-02-15T14:52:39;13.70;99.90
8420;DHT22;4247;48.550;8.822;2024-02-15T14:55:07;13.80;99.90
8420;DHT22;4247;48.550;8.822;2024-02-15T14:57:34;13.70;99.90
8420;DHT22;4247;48.550;8.822;2024-02-15T15:00:01;13.70;99.90
8420;DHT22;4247;48.550;8.822;2024-02-15T15:02:29;13.70;99.90
8420;DHT22;4247;48.550;8.822;2024-02-15T15:04:58;13.70;99.90
8420;DHT22;4247;48.550;8.822;2024-02-15T15:07:38;13.70;99.90
8420;DHT22;4247;48.550;8.822;2024-02-15T15:10:22;13.70;99.90
8420;DHT22;4247;48.550;8.822;2024-02-15T15:13:07;13.70;99.90
8420;DHT22;4247;48.550;8.822;2024-02-15T15:15:35;13.60;99.90
8420;DHT22;4247;48.550;8.822;2024-02-15T15:18:03;13.60;99.90
8420;DHT22;4247;48.550;8.822;2024-02-15T15:20:31;13.60;99.90
8420;DHT22;4247;48.550;8.822;2024-02-15T15:22:58;13.50;99.90
8420;DHT22;4247;48.550;8.822;2024-02-15T15:25:25;13.50;99.90
8420;DHT22;4247;48.550;8.822;2024-02-15T15:27:53;13.50;99.90
8420;DHT22;4247;48.550;8.822;2024-02-15T15:30:21;13.50;99.90
8420;DHT22;4247;48.550;8.822;2024-02-15T15:32:48;13.40;99.90
8420;DHT22;4247;48.550;8.822;2024-02-15T15:35:15;13.40;99.90
8420;DHT22;4247;48.550;8.822;2024-02-15T15:37:45;13.40;99.90
8420;DHT22;4247;48.550;8.822;2024-02-15T15:40:12;13.40;99.90
8420;DHT22;4247;48.550;8.822;2024-02-15T15:42:39;13.40;99.90
8420;DHT22;4247;48.550;8.822;2024-02-15T15:45:06;13.40;99.90
8420;DHT22;4247;48.550;8.822;2024-02-15T15:47:34;13.30;99.90
8420;DHT22;4247;48.550;8.822;2024-02-15T15:50:01;13.30;99.90
8420;DHT22;4247;48.550;8.822;2024-02-15T15:52:31;13.30;99.90
8420;DHT22;4247;48.550;8.822;2024-02-15T15:55:00;13.20;99.90
8420;DHT22;4247;48.550;8.822;2024-02-15T15:57:27;13.20;99.90
8420;DHT22;4247;48.550;8.822;2024-02-15T15:59:54;13.10;99.90
8420;DHT22;4247;48.550;8.822;2024-02-15T16:02:22;13.10;99.90
8420;DHT22;4247;48.550;8.822;2024-02-15T16:04:49;13.10;99.90
8420;DHT22;4247;48.550;8.822;2024-02-15T16:07:20;13.00;99.90
8420;DHT22;4247;48.550;8.822;2024-02-15T16:09:47;13.00;99.90
8420;DHT22;4247;48.550;8.822;2024-02-15T16:12:15;12.90;99.90
8420;DHT22;4247;48.550;8.822;2024-02-15T16:14:44;12.90;99.90
8420;DHT22;4247;48.550;8.822;2024-02-15T16:17:12;12.80;99.90
8420;DHT22;4247;48.550;8.822;2024-02-15T16:19:39;12.80;99.90
8420;DHT22;4247;48.550;8.822;2024-02-15T16:22:07;12.80;99.90
8420;DHT22;4247;48.550;8.822;2024-02-15T16:24:34;12.70;99.90